sensor_id;sensor_type;location;lat;lon;timestamp;P1;durP1;ratioP1;P2;durP2;ratioP2
4529;SDS011;2277;51.626;7.516;2023-12-14T00:00:25;6.13;;;4.90;;
4529;SDS011;2277;51.626;7.516;2023-12-14T00:02:51;6.40;;;4.40;;
4529;SDS011;2277;51.626;7.516;2023-12-14T00:05:16;5.40;;;3.67;;
4529;SDS011;2277;51.626;7.516;2023-12-14T00:07:42;4.67;;;3.83;;
4529;SDS011;2277;51.626;7.516;2023-12-14T00:10:07;3.90;;;3.20;;
4529;SDS011;2277;51.626;7.516;2023-12-14T00:12:33;6.17;;;3.77;;
4529;SDS011;2277;51.626;7.516;2023-12-14T00:14:59;5.93;;;3.40;;
4529;SDS011;2277;51.626;7.516;2023-12-14T00:17:24;6.40;;;4.83;;
4529;SDS011;2277;51.626;7.516;2023-12-14T00:19:50;4.00;;;3.30;;
4529;SDS011;2277;51.626;7.516;2023-12-14T00:22:15;4.00;;;3.43;;
4529;SDS011;2277;51.626;7.516;2023-12-14T00:24:41;7.63;;;4.17;;
4529;SDS011;2277;51.626;7.516;2023-12-14T00:27:07;6.23;;;3.70;;
4529;SDS011;2277;51.626;7.516;2023-12-14T00:29:32;7.10;;;5.30;;
4529;SDS011;2277;51.626;7.516;2023-12-14T00:31:58;6.60;;;4.63;;
4529;SDS011;2277;51.626;7.516;2023-12-14T00:34:23;6.30;;;5.10;;
4529;SDS011;2277;51.626;7.516;2023-12-14T00:36:49;11.07;;;6.90;;
4529;SDS011;2277;51.626;7.516;2023-12-14T00:39:14;9.83;;;6.40;;
4529;SDS011;2277;51.626;7.516;2023-12-14T00:41:40;9.27;;;5.80;;
4529;SDS011;2277;51.626;7.516;2023-12-14T00:44:06;8.60;;;7.20;;
4529;SDS011;2277;51.626;7.516;2023-12-14T00:46:31;9.70;;;6.17;;
4529;SDS011;2277;51.626;7.516;2023-12-14T00:48:57;10.33;;;7.70;;
4529;SDS011;2277;51.626;7.516;2023-12-14T00:51:22;11.83;;;7.30;;
4529;SDS011;2277;51.626;7.516;2023-12-14T00:53:48;11.10;;;8.37;;
4529;SDS011;2277;51.626;7.516;2023-12-14T00:56:13;11.77;;;8.50;;
4529;SDS011;2277;51.626;7.516;2023-12-14T00:58:39;15.13;;;8.10;;
4529;SDS011;2277;51.626;7.516;2023-12-14T01:01:04;17.50;;;8.60;;
4529;SDS011;2277;51.626;7.516;2023-12-14T01:03:30;13.20;;;9.93;;
4529;SDS011;2277;51.626;7.516;2023-12-14T01:05:56;12.90;;;8.47;;
4529;SDS011;2277;51.626;7.516;2023-12-14T01:08:21;13.43;;;8.70;;
4529;SDS011;2277;51.626;7.516;2023-12-14T01:10:47;11.27;;;8.60;;
4529;SDS011;2277;51.626;7.516;2023-12-14T01:13:12;13.97;;;9.70;;
4529;SDS011;2277;51.626;7.516;2023-12-14T01:15:38;14.67;;;9.47;;
4529;SDS011;2277;51.626;7.516;2023-12-14T01:18:04;13.80;;;8.13;;
4529;SDS011;2277;51.626;7.516;2023-12-14T01:20:29;15.73;;;8.73;;
4529;SDS011;2277;51.626;7.516;2023-12-14T01:22:55;15.33;;;9.50;;
4529;SDS011;2277;51.626;7.516;2023-12-14T01:25:20;13.23;;;8.13;;
4529;SDS011;2277;51.626;7.516;2023-12-14T01:27:46;15.03;;;9.10;;
4529;SDS011;2277;51.626;7.516;2023-12-14T01:30:11;14.77;;;8.83;;
4529;SDS011;2277;51.626;7.516;2023-12-14T01:32:37;12.73;;;7.70;;
4529;SDS011;2277;51.626;7.516;2023-12-14T01:35:03;14.50;;;9.77;;
4529;SDS011;2277;51.626;7.516;2023-12-14T01:37:29;12.77;;;8.10;;
4529;SDS011;2277;51.626;7.516;2023-12-14T01:39:55;13.63;;;8.20;;
4529;SDS011;2277;51.626;7.516;2023-12-14T01:42:21;8.97;;;6.70;;
4529;SDS011;2277;51.626;7.516;2023-12-14T01:44:46;12.17;;;8.90;;
4529;SDS011;2277;51.626;7.516;2023-12-14T01:47:12;15.13;;;8.57;;
4529;SDS011;2277;51.626;7.516;2023-12-14T01:49:37;14.20;;;8.73;;
4529;SDS011;2277;51.626;7.516;2023-12-14T01:52:03;12.13;;;8.67;;
4529;SDS011;2277;51.626;7.516;2023-12-14T01:54:29;14.40;;;8.73;;
4529;SDS011;2277;51.626;7.516;2023-12-14T01:56:55;11.30;;;8.03;;
4529;SDS011;2277;51.626;7.516;2023-12-14T01:59:20;13.13;;;8.17;;
4529;SDS011;2277;51.626;7.516;2023-12-14T02:01:47;13.83;;;9.27;;
4529;SDS011;2277;51.626;7.516;2023-12-14T02:04:18;11.10;;;7.20;;
4529;SDS011;2277;51.626;7.516;2023-12-14T02:06:43;13.40;;;8.00;;
4529;SDS011;2277;51.626;7.516;2023-12-14T02:09:09;12.33;;;9.07;;
4529;SDS011;2277;51.626;7.516;2023-12-14T02:11:35;14.70;;;8.90;;
4529;SDS011;2277;51.626;7.516;2023-12-14T02:14:08;11.63;;;9.40;;
4529;SDS011;2277;51.626;7.516;2023-12-14T02:16:35;10.23;;;6.50;;
4529;SDS011;2277;51.626;7.516;2023-12-14T02:19:03;11.87;;;7.63;;
4529;SDS011;2277;51.626;7.516;2023-12-14T02:21:29;12.47;;;7.67;;
4529;SDS011;2277;51.626;7.516;2023-12-14T02:23:55;10.27;;;6.97;;
4529;SDS011;2277;51.626;7.516;2023-12-14T02:26:21;9.90;;;6.57;;
4529;SDS011;2277;51.626;7.516;2023-12-14T02:28:46;8.60;;;7.43;;
4529;SDS011;2277;51.626;7.516;2023-12-14T02:31:12;15.00;;;8.57;;
4529;SDS011;2277;51.626;7.516;2023-12-14T02:33:37;12.80;;;7.80;;
4529;SDS011;2277;51.626;7.516;2023-12-14T02:36:03;10.53;;;7.10;;
4529;SDS011;2277;51.626;7.516;2023-12-14T02:38:29;8.90;;;5.97;;
4529;SDS011;2277;51.626;7.516;2023-12-14T02:40:55;9.57;;;7.13;;
4529;SDS011;2277;51.626;7.516;2023-12-14T02:43:20;9.20;;;6.73;;
4529;SDS011;2277;51.626;7.516;2023-12-14T02:45:49;12.57;;;6.73;;
4529;SDS011;2277;51.626;7.516;2023-12-14T02:48:15;15.90;;;6.97;;
4529;SDS011;2277;51.626;7.516;2023-12-14T02:50:40;8.07;;;6.03;;
4529;SDS011;2277;51.626;7.516;2023-12-14T02:53:06;10.67;;;6.23;;
4529;SDS011;2277;51.626;7.516;2023-12-14T02:55:32;9.00;;;6.17;;
4529;SDS011;2277;51.626;7.516;2023-12-14T02:57:57;9.07;;;6.50;;
4529;SDS011;2277;51.626;7.516;2023-12-14T03:00:23;14.73;;;5.73;;
4529;SDS011;2277;51.626;7.516;2023-12-14T03:02:49;11.93;;;6.80;;
4529;SDS011;2277;51.626;7.516;2023-12-14T03:05:14;9.80;;;6.30;;
4529;SDS011;2277;51.626;7.516;2023-12-14T03:07:40;7.90;;;5.03;;
4529;SDS011;2277;51.626;7.516;2023-12-14T03:10:06;8.80;;;6.27;;
4529;SDS011;2277;51.626;7.516;2023-12-14T03:12:32;10.70;;;6.13;;
4529;SDS011;2277;51.626;7.516;2023-12-14T03:14:58;9.30;;;7.00;;
4529;SDS011;2277;51.626;7.516;2023-12-14T03:17:23;10.50;;;6.60;;
4529;SDS011;2277;51.626;7.516;2023-12-14T03:19:49;10.13;;;5.90;;
4529;SDS011;2277;51.626;7.516;2023-12-14T03:22:14;9.20;;;5.97;;
4529;SDS011;2277;51.626;7.516;2023-12-14T03:24:40;13.90;;;6.23;;
4529;SDS011;2277;51.626;7.516;2023-12-14T03:27:06;12.50;;;7.10;;
4529;SDS011;2277;51.626;7.516;2023-12-14T03:29:32;10.47;;;5.93;;
4529;SDS011;2277;51.626;7.516;2023-12-14T03:31:58;9.07;;;5.80;;
4529;SDS011;2277;51.626;7.516;2023-12-14T03:34:24;9.53;;;6.90;;
4529;SDS011;2277;51.626;7.516;2023-12-14T03:36:49;8.33;;;5.60;;
4529;SDS011;2277;51.626;7.516;2023-12-14T03:39:15;12.00;;;6.00;;
4529;SDS011;2277;51.626;7.516;2023-12-14T03:41:41;10.60;;;5.87;;
4529;SDS011;2277;51.626;7.516;2023-12-14T03:44:07;10.23;;;5.63;;
4529;SDS011;2277;51.626;7.516;2023-12-14T03:46:33;6.97;;;6.13;;
4529;SDS011;2277;51.626;7.516;2023-12-14T03:48:59;8.63;;;6.13;;
4529;SDS011;2277;51.626;7.516;2023-12-14T03:51:25;8.43;;;5.83;;
4529;SDS011;2277;51.626;7.516;2023-12-14T03:53:51;5.77;;;4.50;;
4529;SDS011;2277;51.626;7.516;2023-12-14T03:56:16;9.67;;;6.93;;
4529;SDS011;2277;51.626;7.516;2023-12-14T03:58:42;9.17;;;8.23;;
4529;SDS011;2277;51.626;7.516;2023-12-14T04:01:07;8.87;;;6.40;;
4529;SDS011;2277;51.626;7.516;2023-12-14T04:03:39;9.80;;;5.30;;
4529;SDS011;2277;51.626;7.516;2023-12-14T04:06:05;9.90;;;6.43;;
4529;SDS011;2277;51.626;7.516;2023-12-14T04:08:31;7.43;;;5.87;;
4529;SDS011;2277;51.626;7.516;2023-12-14T04:10:56;7.70;;;5.47;;
4529;SDS011;2277;51.626;7.516;2023-12-14T04:13:22;12.80;;;6.57;;
4529;SDS011;2277;51.626;7.516;2023-12-14T04:15:47;7.27;;;4.80;;
4529;SDS011;2277;51.626;7.516;2023-12-14T04:18:13;6.93;;;4.90;;
4529;SDS011;2277;51.626;7.516;2023-12-14T04:20:38;7.53;;;5.17;;
4529;SDS011;2277;51.626;7.516;2023-12-14T04:23:04;7.40;;;6.37;;
4529;SDS011;2277;51.626;7.516;2023-12-14T04:25:29;9.93;;;4.87;;
4529;SDS011;2277;51.626;7.516;2023-12-14T04:27:55;7.57;;;4.53;;
4529;SDS011;2277;51.626;7.516;2023-12-14T04:30:21;11.80;;;6.83;;
4529;SDS011;2277;51.626;7.516;2023-12-14T04:32:46;4.57;;;4.07;;
4529;SDS011;2277;51.626;7.516;2023-12-14T04:35:12;12.70;;;5.63;;
4529;SDS011;2277;51.626;7.516;2023-12-14T04:37:38;9.00;;;5.57;;
4529;SDS011;2277;51.626;7.516;2023-12-14T04:40:04;7.20;;;5.30;;
4529;SDS011;2277;51.626;7.516;2023-12-14T04:42:30;5.23;;;3.63;;
4529;SDS011;2277;51.626;7.516;2023-12-14T04:44:55;8.47;;;4.43;;
4529;SDS011;2277;51.626;7.516;2023-12-14T04:47:21;6.90;;;4.70;;
4529;SDS011;2277;51.626;7.516;2023-12-14T04:49:46;5.37;;;4.40;;
4529;SDS011;2277;51.626;7.516;2023-12-14T04:52:12;10.27;;;5.93;;
4529;SDS011;2277;51.626;7.516;2023-12-14T04:54:38;10.03;;;4.67;;
4529;SDS011;2277;51.626;7.516;2023-12-14T04:57:05;5.90;;;3.70;;
4529;SDS011;2277;51.626;7.516;2023-12-14T04:59:31;6.07;;;5.10;;
4529;SDS011;2277;51.626;7.516;2023-12-14T05:01:56;7.67;;;5.03;;
4529;SDS011;2277;51.626;7.516;2023-12-14T05:04:22;6.70;;;5.20;;
4529;SDS011;2277;51.626;7.516;2023-12-14T05:06:47;9.03;;;5.93;;
4529;SDS011;2277;51.626;7.516;2023-12-14T05:09:13;9.27;;;5.03;;
4529;SDS011;2277;51.626;7.516;2023-12-14T05:11:42;8.80;;;4.67;;
4529;SDS011;2277;51.626;7.516;2023-12-14T05:14:07;8.00;;;5.37;;
4529;SDS011;2277;51.626;7.516;2023-12-14T05:16:33;7.23;;;4.17;;
4529;SDS011;2277;51.626;7.516;2023-12-14T05:18:59;6.50;;;4.30;;
4529;SDS011;2277;51.626;7.516;2023-12-14T05:21:24;6.57;;;4.73;;
4529;SDS011;2277;51.626;7.516;2023-12-14T05:23:50;8.13;;;5.90;;
4529;SDS011;2277;51.626;7.516;2023-12-14T05:26:16;7.20;;;4.97;;
4529;SDS011;2277;51.626;7.516;2023-12-14T05:28:42;7.83;;;4.67;;
4529;SDS011;2277;51.626;7.516;2023-12-14T05:31:07;8.47;;;4.63;;
4529;SDS011;2277;51.626;7.516;2023-12-14T05:33:36;9.87;;;6.53;;
4529;SDS011;2277;51.626;7.516;2023-12-14T05:36:02;4.83;;;4.20;;
4529;SDS011;2277;51.626;7.516;2023-12-14T05:38:30;6.93;;;5.57;;
4529;SDS011;2277;51.626;7.516;2023-12-14T05:40:56;6.73;;;5.03;;
4529;SDS011;2277;51.626;7.516;2023-12-14T05:43:21;9.00;;;6.70;;
4529;SDS011;2277;51.626;7.516;2023-12-14T05:45:47;8.13;;;6.27;;
4529;SDS011;2277;51.626;7.516;2023-12-14T05:48:12;8.00;;;5.13;;
4529;SDS011;2277;51.626;7.516;2023-12-14T05:50:38;6.77;;;4.50;;
4529;SDS011;2277;51.626;7.516;2023-12-14T05:53:04;6.73;;;5.60;;
4529;SDS011;2277;51.626;7.516;2023-12-14T05:55:29;9.30;;;5.63;;
4529;SDS011;2277;51.626;7.516;2023-12-14T05:57:55;6.10;;;4.47;;
4529;SDS011;2277;51.626;7.516;2023-12-14T06:00:21;6.40;;;5.30;;
4529;SDS011;2277;51.626;7.516;2023-12-14T06:02:47;7.00;;;4.90;;
4529;SDS011;2277;51.626;7.516;2023-12-14T06:05:12;6.70;;;5.27;;
4529;SDS011;2277;51.626;7.516;2023-12-14T06:07:38;7.77;;;4.70;;
4529;SDS011;2277;51.626;7.516;2023-12-14T06:10:04;8.07;;;5.40;;
4529;SDS011;2277;51.626;7.516;2023-12-14T06:12:30;8.87;;;6.33;;
4529;SDS011;2277;51.626;7.516;2023-12-14T06:14:55;6.90;;;4.53;;
4529;SDS011;2277;51.626;7.516;2023-12-14T06:17:21;6.90;;;4.67;;
4529;SDS011;2277;51.626;7.516;2023-12-14T06:19:47;7.17;;;6.00;;
4529;SDS011;2277;51.626;7.516;2023-12-14T06:22:12;6.67;;;5.10;;
4529;SDS011;2277;51.626;7.516;2023-12-14T06:24:38;13.87;;;6.33;;
4529;SDS011;2277;51.626;7.516;2023-12-14T06:27:03;8.23;;;6.23;;
4529;SDS011;2277;51.626;7.516;2023-12-14T06:29:29;9.27;;;6.00;;
4529;SDS011;2277;51.626;7.516;2023-12-14T06:31:55;11.60;;;6.70;;
4529;SDS011;2277;51.626;7.516;2023-12-14T06:34:20;11.07;;;6.17;;
4529;SDS011;2277;51.626;7.516;2023-12-14T06:36:46;8.97;;;6.87;;
4529;SDS011;2277;51.626;7.516;2023-12-14T06:39:12;10.40;;;6.73;;
4529;SDS011;2277;51.626;7.516;2023-12-14T06:41:37;8.00;;;5.97;;
4529;SDS011;2277;51.626;7.516;2023-12-14T06:44:04;8.57;;;5.27;;
4529;SDS011;2277;51.626;7.516;2023-12-14T06:46:30;8.90;;;6.60;;
4529;SDS011;2277;51.626;7.516;2023-12-14T06:48:55;11.40;;;6.53;;
4529;SDS011;2277;51.626;7.516;2023-12-14T06:51:21;12.70;;;6.77;;
4529;SDS011;2277;51.626;7.516;2023-12-14T06:53:47;8.47;;;5.77;;
4529;SDS011;2277;51.626;7.516;2023-12-14T06:56:13;10.60;;;6.13;;
4529;SDS011;2277;51.626;7.516;2023-12-14T06:58:40;10.07;;;8.27;;
4529;SDS011;2277;51.626;7.516;2023-12-14T07:01:07;10.10;;;5.27;;
4529;SDS011;2277;51.626;7.516;2023-12-14T07:03:36;9.50;;;6.77;;
4529;SDS011;2277;51.626;7.516;2023-12-14T07:06:05;11.90;;;6.33;;
4529;SDS011;2277;51.626;7.516;2023-12-14T07:08:31;8.20;;;6.10;;
4529;SDS011;2277;51.626;7.516;2023-12-14T07:10:57;9.07;;;6.37;;
4529;SDS011;2277;51.626;7.516;2023-12-14T07:13:23;8.27;;;5.97;;
4529;SDS011;2277;51.626;7.516;2023-12-14T07:15:48;11.80;;;6.73;;
4529;SDS011;2277;51.626;7.516;2023-12-14T07:18:14;13.93;;;7.00;;
4529;SDS011;2277;51.626;7.516;2023-12-14T07:20:39;7.40;;;5.47;;
4529;SDS011;2277;51.626;7.516;2023-12-14T07:23:05;11.30;;;8.67;;
4529;SDS011;2277;51.626;7.516;2023-12-14T07:25:30;11.67;;;8.13;;
4529;SDS011;2277;51.626;7.516;2023-12-14T07:27:56;9.10;;;6.93;;
4529;SDS011;2277;51.626;7.516;2023-12-14T07:30:22;8.97;;;6.47;;
4529;SDS011;2277;51.626;7.516;2023-12-14T07:32:47;11.10;;;7.77;;
4529;SDS011;2277;51.626;7.516;2023-12-14T07:35:13;8.30;;;6.20;;
4529;SDS011;2277;51.626;7.516;2023-12-14T07:37:38;12.93;;;7.80;;
4529;SDS011;2277;51.626;7.516;2023-12-14T07:40:04;12.07;;;7.97;;
4529;SDS011;2277;51.626;7.516;2023-12-14T07:42:30;11.00;;;6.93;;
4529;SDS011;2277;51.626;7.516;2023-12-14T07:44:56;10.40;;;6.90;;
4529;SDS011;2277;51.626;7.516;2023-12-14T07:47:22;12.80;;;8.20;;
4529;SDS011;2277;51.626;7.516;2023-12-14T07:49:48;8.13;;;6.50;;
4529;SDS011;2277;51.626;7.516;2023-12-14T07:52:14;11.90;;;7.40;;
4529;SDS011;2277;51.626;7.516;2023-12-14T07:54:39;11.70;;;7.57;;
4529;SDS011;2277;51.626;7.516;2023-12-14T07:57:05;13.77;;;7.60;;
4529;SDS011;2277;51.626;7.516;2023-12-14T07:59:30;12.60;;;7.87;;
4529;SDS011;2277;51.626;7.516;2023-12-14T08:01:56;9.60;;;6.43;;
4529;SDS011;2277;51.626;7.516;2023-12-14T08:04:21;10.63;;;7.83;;
4529;SDS011;2277;51.626;7.516;2023-12-14T08:06:48;9.50;;;6.17;;
4529;SDS011;2277;51.626;7.516;2023-12-14T08:09:14;11.07;;;6.57;;
4529;SDS011;2277;51.626;7.516;2023-12-14T08:11:39;12.87;;;5.93;;
4529;SDS011;2277;51.626;7.516;2023-12-14T08:14:05;10.00;;;6.60;;
4529;SDS011;2277;51.626;7.516;2023-12-14T08:16:31;14.40;;;8.93;;
4529;SDS011;2277;51.626;7.516;2023-12-14T08:18:56;7.43;;;5.40;;
4529;SDS011;2277;51.626;7.516;2023-12-14T08:21:22;10.40;;;6.37;;
4529;SDS011;2277;51.626;7.516;2023-12-14T08:23:48;11.00;;;7.30;;
4529;SDS011;2277;51.626;7.516;2023-12-14T08:26:14;9.27;;;6.50;;
4529;SDS011;2277;51.626;7.516;2023-12-14T08:28:39;12.57;;;6.97;;
4529;SDS011;2277;51.626;7.516;2023-12-14T08:31:05;12.80;;;7.07;;
4529;SDS011;2277;51.626;7.516;2023-12-14T08:33:31;18.63;;;7.50;;
4529;SDS011;2277;51.626;7.516;2023-12-14T08:35:57;7.87;;;6.23;;
4529;SDS011;2277;51.626;7.516;2023-12-14T08:38:23;8.53;;;6.47;;
4529;SDS011;2277;51.626;7.516;2023-12-14T08:40:48;11.73;;;7.23;;
4529;SDS011;2277;51.626;7.516;2023-12-14T08:43:14;9.40;;;6.03;;
4529;SDS011;2277;51.626;7.516;2023-12-14T08:45:39;11.47;;;7.33;;
4529;SDS011;2277;51.626;7.516;2023-12-14T08:48:05;8.53;;;6.47;;
4529;SDS011;2277;51.626;7.516;2023-12-14T08:50:31;7.63;;;6.70;;
4529;SDS011;2277;51.626;7.516;2023-12-14T08:52:56;14.07;;;7.43;;
4529;SDS011;2277;51.626;7.516;2023-12-14T08:55:25;11.50;;;7.27;;
4529;SDS011;2277;51.626;7.516;2023-12-14T08:57:51;12.00;;;7.20;;
4529;SDS011;2277;51.626;7.516;2023-12-14T09:00:17;12.50;;;7.50;;
4529;SDS011;2277;51.626;7.516;2023-12-14T09:02:43;9.10;;;8.00;;
4529;SDS011;2277;51.626;7.516;2023-12-14T09:05:11;11.20;;;7.40;;
4529;SDS011;2277;51.626;7.516;2023-12-14T09:07:38;12.60;;;8.40;;
4529;SDS011;2277;51.626;7.516;2023-12-14T09:10:04;8.17;;;6.27;;
4529;SDS011;2277;51.626;7.516;2023-12-14T09:12:31;14.63;;;9.07;;
4529;SDS011;2277;51.626;7.516;2023-12-14T09:14:57;16.07;;;8.70;;
4529;SDS011;2277;51.626;7.516;2023-12-14T09:17:23;13.43;;;9.27;;
4529;SDS011;2277;51.626;7.516;2023-12-14T09:19:49;15.57;;;9.60;;
4529;SDS011;2277;51.626;7.516;2023-12-14T09:22:14;12.37;;;9.83;;
4529;SDS011;2277;51.626;7.516;2023-12-14T09:24:40;14.30;;;8.57;;
4529;SDS011;2277;51.626;7.516;2023-12-14T09:27:05;14.63;;;9.23;;
4529;SDS011;2277;51.626;7.516;2023-12-14T09:29:31;11.93;;;7.50;;
4529;SDS011;2277;51.626;7.516;2023-12-14T09:31:56;14.43;;;9.90;;
4529;SDS011;2277;51.626;7.516;2023-12-14T09:34:22;18.40;;;9.13;;
4529;SDS011;2277;51.626;7.516;2023-12-14T09:36:47;13.20;;;8.50;;
4529;SDS011;2277;51.626;7.516;2023-12-14T09:39:13;14.13;;;9.07;;
4529;SDS011;2277;51.626;7.516;2023-12-14T09:41:40;14.97;;;9.20;;
4529;SDS011;2277;51.626;7.516;2023-12-14T09:44:06;12.80;;;8.90;;
4529;SDS011;2277;51.626;7.516;2023-12-14T09:46:33;17.47;;;8.60;;
4529;SDS011;2277;51.626;7.516;2023-12-14T09:49:01;10.20;;;7.27;;
4529;SDS011;2277;51.626;7.516;2023-12-14T09:51:29;16.20;;;9.10;;
4529;SDS011;2277;51.626;7.516;2023-12-14T09:53:55;15.23;;;10.60;;
4529;SDS011;2277;51.626;7.516;2023-12-14T09:56:26;12.97;;;9.57;;
4529;SDS011;2277;51.626;7.516;2023-12-14T09:58:52;13.70;;;8.43;;
4529;SDS011;2277;51.626;7.516;2023-12-14T10:01:22;18.63;;;10.07;;
4529;SDS011;2277;51.626;7.516;2023-12-14T10:03:48;15.30;;;9.90;;
4529;SDS011;2277;51.626;7.516;2023-12-14T10:06:13;14.43;;;9.13;;
4529;SDS011;2277;51.626;7.516;2023-12-14T10:08:39;17.20;;;11.53;;
4529;SDS011;2277;51.626;7.516;2023-12-14T10:11:05;11.67;;;8.80;;
4529;SDS011;2277;51.626;7.516;2023-12-14T10:13:41;11.40;;;8.50;;
4529;SDS011;2277;51.626;7.516;2023-12-14T10:16:07;13.97;;;10.20;;
4529;SDS011;2277;51.626;7.516;2023-12-14T10:18:32;13.47;;;9.00;;
4529;SDS011;2277;51.626;7.516;2023-12-14T10:21:01;12.60;;;8.83;;
4529;SDS011;2277;51.626;7.516;2023-12-14T10:23:27;15.77;;;9.00;;
4529;SDS011;2277;51.626;7.516;2023-12-14T10:25:53;11.83;;;8.37;;
4529;SDS011;2277;51.626;7.516;2023-12-14T10:28:18;15.37;;;8.83;;
4529;SDS011;2277;51.626;7.516;2023-12-14T10:30:44;16.10;;;10.10;;
4529;SDS011;2277;51.626;7.516;2023-12-14T10:33:10;13.20;;;8.33;;
4529;SDS011;2277;51.626;7.516;2023-12-14T10:35:35;10.83;;;7.70;;
4529;SDS011;2277;51.626;7.516;2023-12-14T10:38:02;13.30;;;8.40;;
4529;SDS011;2277;51.626;7.516;2023-12-14T10:40:29;12.53;;;8.20;;
4529;SDS011;2277;51.626;7.516;2023-12-14T10:42:58;11.30;;;7.33;;
4529;SDS011;2277;51.626;7.516;2023-12-14T10:45:26;11.30;;;7.30;;
4529;SDS011;2277;51.626;7.516;2023-12-14T10:47:55;13.50;;;8.00;;
4529;SDS011;2277;51.626;7.516;2023-12-14T10:50:24;15.40;;;7.60;;
4529;SDS011;2277;51.626;7.516;2023-12-14T10:52:51;10.30;;;7.00;;
4529;SDS011;2277;51.626;7.516;2023-12-14T10:57:58;21.13;;;8.97;;
4529;SDS011;2277;51.626;7.516;2023-12-14T11:00:24;13.90;;;9.50;;
4529;SDS011;2277;51.626;7.516;2023-12-14T11:02:49;12.27;;;8.30;;
4529;SDS011;2277;51.626;7.516;2023-12-14T11:05:17;10.80;;;7.00;;
4529;SDS011;2277;51.626;7.516;2023-12-14T11:07:49;11.27;;;8.77;;
4529;SDS011;2277;51.626;7.516;2023-12-14T11:10:19;14.40;;;7.50;;
4529;SDS011;2277;51.626;7.516;2023-12-14T11:13:01;13.23;;;7.80;;
4529;SDS011;2277;51.626;7.516;2023-12-14T11:15:29;13.60;;;9.30;;
4529;SDS011;2277;51.626;7.516;2023-12-14T11:23:14;12.07;;;6.93;;
4529;SDS011;2277;51.626;7.516;2023-12-14T11:25:42;12.20;;;8.00;;
4529;SDS011;2277;51.626;7.516;2023-12-14T11:28:08;12.57;;;8.20;;
4529;SDS011;2277;51.626;7.516;2023-12-14T11:30:35;13.07;;;8.60;;
4529;SDS011;2277;51.626;7.516;2023-12-14T11:33:01;11.70;;;8.57;;
4529;SDS011;2277;51.626;7.516;2023-12-14T11:35:28;15.13;;;8.23;;
4529;SDS011;2277;51.626;7.516;2023-12-14T11:37:53;12.07;;;8.47;;
4529;SDS011;2277;51.626;7.516;2023-12-14T11:40:22;13.17;;;9.20;;
4529;SDS011;2277;51.626;7.516;2023-12-14T11:43:01;13.83;;;8.70;;
4529;SDS011;2277;51.626;7.516;2023-12-14T11:45:34;14.73;;;9.00;;
4529;SDS011;2277;51.626;7.516;2023-12-14T11:48:01;15.03;;;8.30;;
4529;SDS011;2277;51.626;7.516;2023-12-14T11:50:29;12.93;;;9.03;;
4529;SDS011;2277;51.626;7.516;2023-12-14T11:52:55;14.90;;;9.20;;
4529;SDS011;2277;51.626;7.516;2023-12-14T11:55:21;15.90;;;9.73;;
4529;SDS011;2277;51.626;7.516;2023-12-14T11:57:47;16.67;;;9.30;;
4529;SDS011;2277;51.626;7.516;2023-12-14T12:00:13;9.17;;;6.80;;
4529;SDS011;2277;51.626;7.516;2023-12-14T12:02:40;23.73;;;9.67;;
4529;SDS011;2277;51.626;7.516;2023-12-14T12:05:06;14.73;;;9.03;;
4529;SDS011;2277;51.626;7.516;2023-12-14T12:07:32;12.37;;;9.17;;
4529;SDS011;2277;51.626;7.516;2023-12-14T12:09:58;16.23;;;9.43;;
4529;SDS011;2277;51.626;7.516;2023-12-14T12:12:24;16.90;;;9.33;;
4529;SDS011;2277;51.626;7.516;2023-12-14T12:14:50;15.63;;;9.47;;
4529;SDS011;2277;51.626;7.516;2023-12-14T12:17:17;14.20;;;9.40;;
4529;SDS011;2277;51.626;7.516;2023-12-14T12:19:44;15.57;;;8.43;;
4529;SDS011;2277;51.626;7.516;2023-12-14T12:22:10;14.83;;;9.23;;
4529;SDS011;2277;51.626;7.516;2023-12-14T12:24:36;13.30;;;8.53;;
4529;SDS011;2277;51.626;7.516;2023-12-14T12:27:02;14.27;;;8.63;;
4529;SDS011;2277;51.626;7.516;2023-12-14T12:29:29;14.47;;;8.60;;
4529;SDS011;2277;51.626;7.516;2023-12-14T12:31:55;14.37;;;8.47;;
4529;SDS011;2277;51.626;7.516;2023-12-14T12:34:21;16.80;;;7.80;;
4529;SDS011;2277;51.626;7.516;2023-12-14T12:36:46;11.17;;;7.27;;
4529;SDS011;2277;51.626;7.516;2023-12-14T12:39:12;12.00;;;7.53;;
4529;SDS011;2277;51.626;7.516;2023-12-14T12:41:38;14.50;;;8.80;;
4529;SDS011;2277;51.626;7.516;2023-12-14T12:44:06;11.30;;;7.93;;
4529;SDS011;2277;51.626;7.516;2023-12-14T12:46:34;12.30;;;7.80;;
4529;SDS011;2277;51.626;7.516;2023-12-14T12:49:01;17.00;;;10.00;;
4529;SDS011;2277;51.626;7.516;2023-12-14T12:51:27;11.50;;;7.70;;
4529;SDS011;2277;51.626;7.516;2023-12-14T12:53:54;11.93;;;7.60;;
4529;SDS011;2277;51.626;7.516;2023-12-14T12:56:20;17.83;;;7.93;;
4529;SDS011;2277;51.626;7.516;2023-12-14T12:58:46;12.57;;;7.40;;
4529;SDS011;2277;51.626;7.516;2023-12-14T13:01:13;11.23;;;7.73;;
4529;SDS011;2277;51.626;7.516;2023-12-14T13:03:39;9.20;;;6.90;;
4529;SDS011;2277;51.626;7.516;2023-12-14T13:06:04;15.60;;;7.07;;
4529;SDS011;2277;51.626;7.516;2023-12-14T13:08:30;16.97;;;7.93;;
4529;SDS011;2277;51.626;7.516;2023-12-14T13:10:56;14.77;;;8.07;;
4529;SDS011;2277;51.626;7.516;2023-12-14T13:13:21;10.93;;;7.73;;
4529;SDS011;2277;51.626;7.516;2023-12-14T13:15:47;14.70;;;10.30;;
4529;SDS011;2277;51.626;7.516;2023-12-14T13:18:13;17.60;;;9.10;;
4529;SDS011;2277;51.626;7.516;2023-12-14T13:20:41;11.80;;;8.10;;
4529;SDS011;2277;51.626;7.516;2023-12-14T13:23:07;16.03;;;7.83;;
4529;SDS011;2277;51.626;7.516;2023-12-14T13:25:33;10.70;;;7.17;;
4529;SDS011;2277;51.626;7.516;2023-12-14T13:27:59;11.30;;;8.17;;
4529;SDS011;2277;51.626;7.516;2023-12-14T13:30:25;17.20;;;9.83;;
4529;SDS011;2277;51.626;7.516;2023-12-14T13:32:51;12.27;;;8.50;;
4529;SDS011;2277;51.626;7.516;2023-12-14T13:35:18;10.73;;;8.30;;
4529;SDS011;2277;51.626;7.516;2023-12-14T13:37:44;14.27;;;8.00;;
4529;SDS011;2277;51.626;7.516;2023-12-14T13:40:11;16.03;;;8.50;;
4529;SDS011;2277;51.626;7.516;2023-12-14T13:42:37;15.93;;;9.37;;
4529;SDS011;2277;51.626;7.516;2023-12-14T13:45:03;12.23;;;8.13;;
4529;SDS011;2277;51.626;7.516;2023-12-14T13:47:29;15.00;;;8.17;;
4529;SDS011;2277;51.626;7.516;2023-12-14T13:49:55;11.57;;;8.47;;
4529;SDS011;2277;51.626;7.516;2023-12-14T13:52:21;14.03;;;8.33;;
4529;SDS011;2277;51.626;7.516;2023-12-14T13:54:46;12.50;;;8.80;;
4529;SDS011;2277;51.626;7.516;2023-12-14T13:57:12;13.43;;;8.60;;
4529;SDS011;2277;51.626;7.516;2023-12-14T13:59:37;18.23;;;9.47;;
4529;SDS011;2277;51.626;7.516;2023-12-14T14:02:03;15.77;;;10.07;;
4529;SDS011;2277;51.626;7.516;2023-12-14T14:04:29;11.93;;;8.20;;
4529;SDS011;2277;51.626;7.516;2023-12-14T14:06:54;10.73;;;8.03;;
4529;SDS011;2277;51.626;7.516;2023-12-14T14:09:21;11.57;;;8.07;;
4529;SDS011;2277;51.626;7.516;2023-12-14T14:11:47;16.63;;;11.03;;
4529;SDS011;2277;51.626;7.516;2023-12-14T14:14:15;13.13;;;8.83;;
4529;SDS011;2277;51.626;7.516;2023-12-14T14:16:41;13.87;;;8.13;;
4529;SDS011;2277;51.626;7.516;2023-12-14T14:19:07;13.10;;;7.77;;
4529;SDS011;2277;51.626;7.516;2023-12-14T14:21:32;16.13;;;8.97;;
4529;SDS011;2277;51.626;7.516;2023-12-14T14:23:58;15.10;;;8.90;;
4529;SDS011;2277;51.626;7.516;2023-12-14T14:26:23;13.73;;;10.17;;
4529;SDS011;2277;51.626;7.516;2023-12-14T14:28:49;13.50;;;9.07;;
4529;SDS011;2277;51.626;7.516;2023-12-14T14:31:14;13.87;;;9.33;;
4529;SDS011;2277;51.626;7.516;2023-12-14T14:33:40;13.43;;;8.20;;
4529;SDS011;2277;51.626;7.516;2023-12-14T14:36:06;14.33;;;8.57;;
4529;SDS011;2277;51.626;7.516;2023-12-14T14:38:33;16.40;;;8.77;;
4529;SDS011;2277;51.626;7.516;2023-12-14T14:40:58;17.10;;;9.63;;
4529;SDS011;2277;51.626;7.516;2023-12-14T14:43:24;13.30;;;9.07;;
4529;SDS011;2277;51.626;7.516;2023-12-14T14:45:50;18.07;;;11.23;;
4529;SDS011;2277;51.626;7.516;2023-12-14T14:48:15;13.50;;;8.73;;
4529;SDS011;2277;51.626;7.516;2023-12-14T14:50:42;15.67;;;9.30;;
4529;SDS011;2277;51.626;7.516;2023-12-14T14:53:07;11.67;;;8.57;;
4529;SDS011;2277;51.626;7.516;2023-12-14T14:55:33;15.77;;;7.80;;
4529;SDS011;2277;51.626;7.516;2023-12-14T14:57:59;14.27;;;9.10;;
4529;SDS011;2277;51.626;7.516;2023-12-14T15:00:25;16.03;;;9.50;;
4529;SDS011;2277;51.626;7.516;2023-12-14T15:02:51;10.77;;;7.53;;
4529;SDS011;2277;51.626;7.516;2023-12-14T15:05:17;13.13;;;8.73;;